createdAt,value
2018-07-16T00:01:55.403Z,8.87
2018-07-16T00:04:27.027Z,7.63
2018-07-16T00:06:57.779Z,8.17
2018-07-16T00:09:29.699Z,7.83
2018-07-16T00:12:01.552Z,8.43
2018-07-16T00:14:32.681Z,8.23
2018-07-16T00:17:03.518Z,8.53
2018-07-16T00:19:36.116Z,8.20
2018-07-16T00:22:07.137Z,8.03
2018-07-16T00:24:38.187Z,8.30
2018-07-16T00:27:10.246Z,8.13
2018-07-16T00:29:41.328Z,8.63
2018-07-16T00:32:14.300Z,8.50
2018-07-16T00:34:47.385Z,8.10
2018-07-16T00:37:18.416Z,7.70
2018-07-16T00:39:50.209Z,8.33
2018-07-16T00:42:20.996Z,7.90
2018-07-16T00:44:52.115Z,8.10
2018-07-16T00:47:22.981Z,8.40
2018-07-16T00:49:55.529Z,9.27
2018-07-16T00:52:26.709Z,9.70
2018-07-16T00:54:58.851Z,9.90
2018-07-16T00:57:31.093Z,10.87
2018-07-16T01:00:02.559Z,9.67
2018-07-16T01:02:33.644Z,9.30
2018-07-16T01:05:05.580Z,8.43
2018-07-16T01:07:36.650Z,9.10
2018-07-16T01:10:07.617Z,8.97
2018-07-16T01:12:38.826Z,8.73
2018-07-16T01:15:10.408Z,8.23
2018-07-16T01:17:42.590Z,8.67
2018-07-16T01:20:14.381Z,8.40
2018-07-16T01:22:45.792Z,8.53
2018-07-16T01:25:16.731Z,9.20
2018-07-16T01:27:47.768Z,8.40
2018-07-16T01:30:18.633Z,8.63
2018-07-16T01:32:51.681Z,8.40
2018-07-16T01:35:23.584Z,8.70
2018-07-16T01:37:55.917Z,9.50
2018-07-16T01:40:28.914Z,9.30
2018-07-16T01:43:00.042Z,9.13
2018-07-16T01:45:32.237Z,9.17
2018-07-16T01:48:03.776Z,8.93
2018-07-16T01:50:35.677Z,9.20
2018-07-16T01:53:06.721Z,9.10
2018-07-16T01:55:37.650Z,9.40
2018-07-16T01:58:08.955Z,9.57
2018-07-16T02:00:50.451Z,10.07
2018-07-16T02:03:22.251Z,8.87
2018-07-16T02:05:54.169Z,8.70
2018-07-16T02:08:25.951Z,8.83
2018-07-16T02:10:58.017Z,8.90
2018-07-16T02:13:29.024Z,9.43
2018-07-16T02:16:00.111Z,8.77
2018-07-16T02:18:31.078Z,9.47
2018-07-16T02:21:02.885Z,9.20
2018-07-16T02:23:34.854Z,9.40
2018-07-16T02:26:07.689Z,8.93
2018-07-16T02:28:38.781Z,8.53
2018-07-16T02:31:09.850Z,8.77
2018-07-16T02:33:40.834Z,8.77
2018-07-16T02:36:13.419Z,8.93
2018-07-16T02:38:44.893Z,9.40
2018-07-16T02:41:16.936Z,9.27
2018-07-16T02:43:48.669Z,8.47
2018-07-16T02:46:20.359Z,8.73
2018-07-16T02:48:51.496Z,8.73
2018-07-16T02:51:23.302Z,8.47
2018-07-16T02:53:54.584Z,8.40
2018-07-16T02:56:25.717Z,8.70
2018-07-16T02:58:58.210Z,8.80
2018-07-16T03:01:29.247Z,8.77
2018-07-16T03:04:00.381Z,8.80
2018-07-16T03:06:31.334Z,8.27
2018-07-16T03:09:02.360Z,8.63
2018-07-16T03:11:33.353Z,8.10
2018-07-16T03:14:04.930Z,8.57
2018-07-16T03:16:35.863Z,8.20
2018-07-16T03:19:06.933Z,9.07
2018-07-16T03:21:38.808Z,8.37
2018-07-16T03:24:09.961Z,7.87
2018-07-16T03:26:40.922Z,8.50
2018-07-16T03:29:12.212Z,8.47
2018-07-16T03:31:43.998Z,7.97
2018-07-16T03:34:15.097Z,8.00
2018-07-16T03:36:46.872Z,7.80
2018-07-16T03:39:17.822Z,8.50
2018-07-16T03:41:48.692Z,9.83
2018-07-16T03:44:21.001Z,8.50
2018-07-16T03:46:52.272Z,8.97
2018-07-16T03:49:23.245Z,8.87
2018-07-16T03:51:58.434Z,8.63
2018-07-16T03:54:29.503Z,8.97
2018-07-16T03:57:00.687Z,9.03
2018-07-16T03:59:31.628Z,9.47
2018-07-16T04:02:03.483Z,8.77
2018-07-16T04:04:35.342Z,9.37
2018-07-16T04:07:07.374Z,9.40
2018-07-16T04:09:38.262Z,9.03
2018-07-16T04:12:10.312Z,8.50
2018-07-16T04:14:41.096Z,9.67
2018-07-16T04:17:12.576Z,8.57
2018-07-16T04:19:44.432Z,9.00
2018-07-16T04:22:16.512Z,9.30
2018-07-16T04:24:47.213Z,9.23
2018-07-16T04:27:18.531Z,9.37
2018-07-16T04:29:49.361Z,9.40
2018-07-16T04:32:20.178Z,9.13
2018-07-16T04:34:51.089Z,9.67
2018-07-16T04:37:23.471Z,9.27
2018-07-16T04:39:54.477Z,9.80
2018-07-16T04:42:25.452Z,8.53
2018-07-16T04:44:56.990Z,9.13
2018-07-16T04:47:28.800Z,9.90
2018-07-16T04:49:59.656Z,9.03
2018-07-16T04:52:31.344Z,9.10
2018-07-16T04:55:02.098Z,9.33
2018-07-16T04:57:34.943Z,8.57
2018-07-16T05:00:38.098Z,9.70
2018-07-16T05:03:11.068Z,9.63
2018-07-16T05:05:43.040Z,9.13
2018-07-16T05:08:15.273Z,9.40
2018-07-16T05:10:47.867Z,9.17
2018-07-16T05:13:19.019Z,9.57
2018-07-16T05:15:50.358Z,9.73
2018-07-16T05:18:21.460Z,8.20
2018-07-16T05:20:53.302Z,8.63
2018-07-16T05:23:25.837Z,8.67
2018-07-16T05:25:58.083Z,8.57
2018-07-16T05:28:29.952Z,8.20
2018-07-16T05:31:01.840Z,8.80
2018-07-16T05:33:32.772Z,9.03
2018-07-16T05:36:04.225Z,9.30
2018-07-16T05:38:35.686Z,8.37
2018-07-16T05:41:08.271Z,7.97
2018-07-16T05:43:39.818Z,8.47
2018-07-16T05:46:11.741Z,8.05
2018-07-16T05:48:42.949Z,9.15
2018-07-16T05:51:13.993Z,8.78
2018-07-16T05:53:44.990Z,8.40
2018-07-16T05:56:17.776Z,8.20
2018-07-16T05:58:50.118Z,8.88
2018-07-16T06:01:21.895Z,8.13
2018-07-16T06:03:53.085Z,8.23
2018-07-16T06:06:24.754Z,8.15
2018-07-16T06:08:56.095Z,8.50
2018-07-16T06:11:29.279Z,7.85
2018-07-16T06:14:00.116Z,8.40
2018-07-16T06:16:33.319Z,7.58
2018-07-16T06:19:04.860Z,8.20
2018-07-16T06:21:37.009Z,8.50
2018-07-16T06:24:08.872Z,8.75
2018-07-16T06:26:40.550Z,8.25
2018-07-16T06:29:11.517Z,8.13
2018-07-16T06:31:42.813Z,8.13
2018-07-16T06:34:13.731Z,8.18
2018-07-16T06:36:44.705Z,8.88
2018-07-16T06:39:15.621Z,9.70
2018-07-16T06:41:47.637Z,9.28
2018-07-16T06:44:18.654Z,9.43
2018-07-16T06:46:50.420Z,8.83
2018-07-16T06:49:21.406Z,9.75
2018-07-16T06:51:53.348Z,9.15
2018-07-16T06:54:24.389Z,9.00
2018-07-16T06:56:55.583Z,8.88
2018-07-16T06:59:26.921Z,9.20
2018-07-16T07:02:00.257Z,8.65
2018-07-16T07:04:31.597Z,9.38
2018-07-16T07:07:02.624Z,8.58
2018-07-16T07:09:34.367Z,8.23
2018-07-16T07:12:05.435Z,8.13
2018-07-16T07:14:36.561Z,8.70
2018-07-16T07:17:08.116Z,9.28
2018-07-16T07:19:39.276Z,9.55
2018-07-16T07:22:10.961Z,9.18
2018-07-16T07:24:41.851Z,9.48
2018-07-16T07:27:13.782Z,9.05
2018-07-16T07:29:45.136Z,9.25
2018-07-16T07:32:16.360Z,8.48
2018-07-16T07:34:47.347Z,9.00
2018-07-16T07:37:18.314Z,9.45
2018-07-16T07:39:49.712Z,9.00
2018-07-16T07:42:20.854Z,8.63
2018-07-16T07:44:52.276Z,9.48
2018-07-16T07:47:23.665Z,9.25
2018-07-16T07:49:57.931Z,9.30
2018-07-16T07:52:29.139Z,9.63
2018-07-16T07:55:03.379Z,9.63
2018-07-16T07:57:34.280Z,9.97
2018-07-16T08:00:07.455Z,11.33
2018-07-16T08:02:39.583Z,11.77
2018-07-16T08:05:10.661Z,10.87
2018-07-16T08:07:41.824Z,10.90
2018-07-16T08:10:13.446Z,11.50
2018-07-16T08:12:48.250Z,11.87
2018-07-16T08:15:19.841Z,12.10
2018-07-16T08:17:51.670Z,12.20
2018-07-16T08:20:22.438Z,12.10
2018-07-16T08:22:53.500Z,12.90
2018-07-16T08:25:24.686Z,12.40
2018-07-16T08:27:56.453Z,12.30
2018-07-16T08:30:28.323Z,12.47
2018-07-16T08:33:00.246Z,11.30
2018-07-16T08:35:31.505Z,11.30
2018-07-16T08:38:02.504Z,11.20
2018-07-16T08:40:33.779Z,11.20
2018-07-16T08:43:04.670Z,10.40
2018-07-16T08:45:35.673Z,10.10
2018-07-16T08:48:07.225Z,9.93
2018-07-16T08:50:37.994Z,10.00
2018-07-16T08:53:08.937Z,10.00
2018-07-16T08:55:40.054Z,10.30
2018-07-16T08:58:11.297Z,10.60
2018-07-16T09:00:43.246Z,9.87
2018-07-16T09:03:15.482Z,10.27
2018-07-16T09:05:51.946Z,10.70
2018-07-16T09:08:22.845Z,10.60
2018-07-16T09:10:54.116Z,11.33
2018-07-16T09:13:25.300Z,10.37
2018-07-16T09:15:56.314Z,10.30
2018-07-16T09:18:27.130Z,10.57
2018-07-16T09:20:58.236Z,10.33
2018-07-16T09:23:30.557Z,10.50
2018-07-16T09:26:01.642Z,9.87
2018-07-16T09:28:33.508Z,9.33
2018-07-16T09:31:04.567Z,10.17
2018-07-16T09:33:36.125Z,10.10
2018-07-16T09:36:07.222Z,9.40
2018-07-16T09:38:38.658Z,9.93
2018-07-16T09:41:09.593Z,9.80
2018-07-16T09:43:40.900Z,9.87
2018-07-16T09:46:11.912Z,10.33
2018-07-16T09:48:42.840Z,10.10
2018-07-16T09:51:13.922Z,10.03
2018-07-16T09:53:45.541Z,9.70
2018-07-16T09:56:17.364Z,9.90
2018-07-16T09:58:48.504Z,9.60
2018-07-16T10:01:24.310Z,10.13
2018-07-16T10:03:55.290Z,9.10
2018-07-16T10:06:26.176Z,9.47
2018-07-16T10:08:58.681Z,8.90
2018-07-16T10:11:29.815Z,9.20
2018-07-16T10:14:00.862Z,9.30
2018-07-16T10:16:32.313Z,9.10
2018-07-16T10:19:03.384Z,9.23
2018-07-16T10:21:34.562Z,9.07
2018-07-16T10:24:05.663Z,9.07
2018-07-16T10:26:51.873Z,8.90
2018-07-16T10:29:28.991Z,8.97
2018-07-16T10:32:00.254Z,9.10
2018-07-16T10:34:31.285Z,9.33
2018-07-16T10:37:02.318Z,9.47
2018-07-16T10:39:33.121Z,9.10
2018-07-16T10:42:05.403Z,10.13
2018-07-16T10:44:36.497Z,9.37
2018-07-16T10:47:07.335Z,9.67
2018-07-16T10:49:39.673Z,9.20
2018-07-16T10:52:11.146Z,9.13
2018-07-16T10:54:42.961Z,9.57
2018-07-16T10:57:13.966Z,9.03
2018-07-16T10:59:45.638Z,9.27
2018-07-16T11:02:16.856Z,8.70
2018-07-16T11:04:47.877Z,8.57
2018-07-16T11:07:19.668Z,9.60
2018-07-16T11:09:51.050Z,9.00
2018-07-16T11:12:22.157Z,9.27
2018-07-16T11:14:53.020Z,9.50
2018-07-16T11:17:24.911Z,9.13
2018-07-16T11:19:55.850Z,8.90
2018-07-16T11:22:26.636Z,8.40
2018-07-16T11:24:58.461Z,8.90
2018-07-16T11:27:29.549Z,8.87
2018-07-16T11:30:01.375Z,9.40
2018-07-16T11:32:33.340Z,9.50
2018-07-16T11:35:05.635Z,8.80
2018-07-16T11:37:38.185Z,9.40
2018-07-16T11:40:09.000Z,8.90
2018-07-16T11:42:40.082Z,8.50
2018-07-16T11:45:11.280Z,8.60
2018-07-16T11:47:42.271Z,8.40
2018-07-16T11:50:14.399Z,8.50
2018-07-16T11:52:45.265Z,9.10
2018-07-16T11:55:16.269Z,8.17
2018-07-16T11:57:47.435Z,8.70
2018-07-16T12:00:19.560Z,8.17
2018-07-16T12:02:50.603Z,8.67
2018-07-16T12:05:22.757Z,8.80
2018-07-16T12:07:53.845Z,8.67
2018-07-16T12:10:27.037Z,9.00
2018-07-16T12:12:59.605Z,8.70
2018-07-16T12:15:32.231Z,8.50
2018-07-16T12:18:03.010Z,9.13
2018-07-16T12:20:35.455Z,9.47
2018-07-16T12:23:07.180Z,9.00
2018-07-16T12:25:39.307Z,9.10
2018-07-16T12:28:10.362Z,8.70
2018-07-16T12:30:41.329Z,8.80
2018-07-16T12:33:12.134Z,9.00
2018-07-16T12:35:43.863Z,8.70
2018-07-16T12:38:14.832Z,9.03
2018-07-16T12:40:45.982Z,9.23
2018-07-16T12:43:16.824Z,8.37
2018-07-16T12:45:47.808Z,9.03
2018-07-16T12:48:18.894Z,8.47
2018-07-16T12:50:49.928Z,8.60
2018-07-16T12:53:20.872Z,9.47
2018-07-16T12:55:51.820Z,8.87
2018-07-16T12:58:22.670Z,9.07
2018-07-16T13:00:54.313Z,8.90
2018-07-16T13:03:26.417Z,8.83
2018-07-16T13:05:58.240Z,8.67
2018-07-16T13:08:28.932Z,8.17
2018-07-16T13:11:01.637Z,8.73
2018-07-16T13:13:32.542Z,9.13
2018-07-16T13:16:03.251Z,8.47
2018-07-16T13:18:34.487Z,9.10
2018-07-16T13:21:06.924Z,9.30
2018-07-16T13:23:37.926Z,9.03
2018-07-16T13:26:09.009Z,8.87
2018-07-16T13:28:39.799Z,9.40
2018-07-16T13:31:11.234Z,9.20
2018-07-16T13:33:42.526Z,9.23
2018-07-16T13:36:13.520Z,8.80
2018-07-16T13:38:44.471Z,9.73
2018-07-16T13:41:16.314Z,9.00
2018-07-16T13:43:47.403Z,9.03
2018-07-16T13:46:18.780Z,9.00
2018-07-16T13:48:49.598Z,9.20
2018-07-16T13:51:20.565Z,8.70
2018-07-16T13:53:51.355Z,8.80
2018-07-16T13:56:22.303Z,9.40
2018-07-16T13:58:54.102Z,8.63
2018-07-16T14:01:26.167Z,9.23
2018-07-16T14:03:57.370Z,8.70
2018-07-16T14:06:29.095Z,8.80
2018-07-16T14:09:00.236Z,9.10
2018-07-16T14:11:34.166Z,8.67
2018-07-16T14:14:05.474Z,8.87
2018-07-16T14:16:37.532Z,9.57
2018-07-16T14:19:08.612Z,8.90
2018-07-16T14:21:39.727Z,8.30
2018-07-16T14:24:10.732Z,9.30
2018-07-16T14:26:42.219Z,8.90
2018-07-16T14:29:13.317Z,9.13
2018-07-16T14:31:44.785Z,9.77
2018-07-16T14:34:16.017Z,8.77
2018-07-16T14:36:48.143Z,9.97
2018-07-16T14:39:19.376Z,8.87
2018-07-16T14:41:50.308Z,9.67
2018-07-16T14:44:21.301Z,9.00
2018-07-16T14:46:52.428Z,10.23
2018-07-16T14:49:26.699Z,8.63
2018-07-16T14:51:57.647Z,9.30
2018-07-16T14:54:28.722Z,9.47
2018-07-16T14:56:59.871Z,9.30
2018-07-16T14:59:30.906Z,9.50
2018-07-16T15:02:02.256Z,8.80
2018-07-16T15:04:33.087Z,9.47
2018-07-16T15:07:04.832Z,8.90
2018-07-16T15:09:36.385Z,8.80
2018-07-16T15:12:07.627Z,9.33
2018-07-16T15:14:38.556Z,9.60
2018-07-16T15:17:09.591Z,9.17
2018-07-16T15:19:40.392Z,10.17
2018-07-16T15:22:11.500Z,9.30
2018-07-16T15:24:43.522Z,9.20
2018-07-16T15:27:14.874Z,8.70
2018-07-16T15:29:45.988Z,9.17
2018-07-16T15:32:16.903Z,9.20
2018-07-16T15:34:47.792Z,9.93
2018-07-16T15:37:20.368Z,9.93
2018-07-16T15:39:51.524Z,9.10
2018-07-16T15:42:22.675Z,9.53
2018-07-16T15:44:55.038Z,10.40
2018-07-16T15:47:26.090Z,9.77
2018-07-16T15:49:57.241Z,10.00
2018-07-16T15:52:28.515Z,10.60
2018-07-16T15:55:01.101Z,10.60
2018-07-16T15:57:32.143Z,10.40
2018-07-16T16:00:03.696Z,10.50
2018-07-16T16:02:36.763Z,9.83
2018-07-16T16:05:08.219Z,10.50
2018-07-16T16:07:40.075Z,10.37
2018-07-16T16:10:11.516Z,11.20
2018-07-16T16:12:43.897Z,11.77
2018-07-16T16:15:18.930Z,11.83
2018-07-16T16:17:50.239Z,11.67
2018-07-16T16:20:22.605Z,12.63
2018-07-16T16:22:54.437Z,12.47
2018-07-16T16:25:26.493Z,12.87
2018-07-16T16:27:58.937Z,13.13
2018-07-16T16:30:32.008Z,12.90
2018-07-16T16:33:04.144Z,12.23
2018-07-16T16:35:35.676Z,13.07
2018-07-16T16:38:07.670Z,13.50
2018-07-16T16:40:42.100Z,12.73
2018-07-16T16:43:13.895Z,12.37
2018-07-16T16:45:47.061Z,13.53
2018-07-16T16:48:19.027Z,11.67
2018-07-16T16:50:50.768Z,12.60
2018-07-16T16:53:21.978Z,12.47
2018-07-16T16:55:56.819Z,12.73
2018-07-16T16:58:31.179Z,13.90
2018-07-16T17:01:02.557Z,13.07
2018-07-16T17:03:34.926Z,13.83
2018-07-16T17:06:07.404Z,12.07
2018-07-16T17:08:41.653Z,12.03
2018-07-16T17:11:13.590Z,12.27
2018-07-16T17:13:44.804Z,12.53
2018-07-16T17:16:15.893Z,13.20
2018-07-16T17:18:47.354Z,13.03
2018-07-16T17:21:18.809Z,12.37
2018-07-16T17:23:50.805Z,13.03
2018-07-16T17:26:22.839Z,12.37
2018-07-16T17:28:54.649Z,12.60
2018-07-16T17:31:27.023Z,11.83
2018-07-16T17:33:58.169Z,12.60
2018-07-16T17:36:29.658Z,12.10
2018-07-16T17:39:15.048Z,12.10
2018-07-16T17:41:48.067Z,12.10
2018-07-16T17:44:20.130Z,12.50
2018-07-16T17:46:51.560Z,12.87
2018-07-16T17:49:23.730Z,12.20
2018-07-16T17:51:57.363Z,12.40
2018-07-16T17:54:28.609Z,12.63
2018-07-16T17:57:00.186Z,13.70
2018-07-16T17:59:39.491Z,13.40
2018-07-16T18:02:13.068Z,13.23
2018-07-16T18:04:45.494Z,14.00
2018-07-16T18:07:24.543Z,12.70
2018-07-16T18:09:57.288Z,12.50
2018-07-16T18:12:28.932Z,13.93
2018-07-16T18:15:03.753Z,12.23
2018-07-16T18:17:35.494Z,12.67
2018-07-16T18:20:08.005Z,12.10
2018-07-16T18:22:42.489Z,12.60
2018-07-16T18:25:17.218Z,12.83
2018-07-16T18:27:52.443Z,13.23
2018-07-16T18:30:23.306Z,14.33
2018-07-16T18:32:58.887Z,14.33
2018-07-16T18:35:34.820Z,14.23
2018-07-16T18:38:09.772Z,13.30
2018-07-16T18:40:42.467Z,13.50
2018-07-16T18:43:14.579Z,13.90
2018-07-16T18:45:48.928Z,13.13
2018-07-16T18:48:22.284Z,14.50
2018-07-16T18:53:37.490Z,14.37
2018-07-16T18:58:46.809Z,13.67
2018-07-16T19:01:21.876Z,14.57
2018-07-16T19:03:56.279Z,13.77
2018-07-16T19:06:38.280Z,13.57
2018-07-16T19:09:11.359Z,14.20
2018-07-16T19:11:43.550Z,13.10
2018-07-16T19:14:16.019Z,13.70
2018-07-16T19:16:47.830Z,14.10
2018-07-16T19:19:19.344Z,13.13
2018-07-16T19:21:50.459Z,12.70
2018-07-16T19:24:23.221Z,13.00
2018-07-16T19:26:56.930Z,14.20
2018-07-16T19:29:33.196Z,13.90
2018-07-16T19:32:05.777Z,13.20
2018-07-16T19:34:38.647Z,12.73
2018-07-16T19:37:11.464Z,12.43
2018-07-16T19:39:43.752Z,12.77
2018-07-16T19:42:16.412Z,13.47
2018-07-16T19:44:50.997Z,13.23
2018-07-16T19:47:22.907Z,11.20
2018-07-16T19:49:54.177Z,12.10
2018-07-16T19:52:25.520Z,12.30
2018-07-16T19:54:57.530Z,12.23
2018-07-16T19:57:28.602Z,13.70
2018-07-16T20:00:00.742Z,12.53
2018-07-16T20:02:34.754Z,12.73
2018-07-16T20:08:15.125Z,12.20
2018-07-16T20:10:46.349Z,12.60
2018-07-16T20:13:17.721Z,12.67
2018-07-16T20:17:25.226Z,13.40
2018-07-16T20:19:57.787Z,13.20
2018-07-16T20:22:29.275Z,13.50
2018-07-16T20:25:00.382Z,13.00
2018-07-16T20:27:32.363Z,12.67
2018-07-16T20:30:07.100Z,13.17
2018-07-16T20:32:39.440Z,13.90
2018-07-16T20:35:11.167Z,12.60
2018-07-16T20:37:47.199Z,13.50
2018-07-16T20:40:23.220Z,12.83
2018-07-16T20:42:58.854Z,12.10
2018-07-16T20:45:34.507Z,12.90
2018-07-16T20:48:09.141Z,12.70
2018-07-16T20:50:40.482Z,12.03
2018-07-16T20:53:13.290Z,12.10
2018-07-16T20:55:48.568Z,12.13
2018-07-16T20:58:24.565Z,12.03
2018-07-16T21:01:01.040Z,12.00
2018-07-16T21:03:33.176Z,11.70
2018-07-16T21:06:07.371Z,12.67
2018-07-16T21:08:38.805Z,11.93
2018-07-16T21:11:10.416Z,12.40
2018-07-16T21:13:41.862Z,11.27
2018-07-16T21:16:13.987Z,11.70
2018-07-16T21:18:47.742Z,13.00
2018-07-16T21:21:18.961Z,12.30
2018-07-16T21:23:50.356Z,12.27
2018-07-16T21:26:21.336Z,12.03
2018-07-16T21:28:53.136Z,12.07
2018-07-16T21:31:24.102Z,12.37
2018-07-16T21:33:55.418Z,12.60
2018-07-16T21:36:26.404Z,13.67
2018-07-16T21:38:58.588Z,12.80
2018-07-16T21:41:31.389Z,12.63
2018-07-16T21:44:02.460Z,13.20
2018-07-16T21:46:33.499Z,12.10
2018-07-16T21:49:04.476Z,13.30
2018-07-16T21:51:35.846Z,13.10
2018-07-16T21:54:07.130Z,12.97
2018-07-16T21:56:38.384Z,12.80
2018-07-16T21:59:09.635Z,14.07
2018-07-16T22:01:40.824Z,11.30
2018-07-16T22:04:12.908Z,11.57
2018-07-16T22:06:44.160Z,12.23
2018-07-16T22:09:15.471Z,12.13
2018-07-16T22:11:50.648Z,11.37
2018-07-16T22:14:21.892Z,11.53
2018-07-16T22:16:53.521Z,11.73
2018-07-16T22:19:24.566Z,11.20
2018-07-16T22:21:56.691Z,11.67
2018-07-16T22:24:27.611Z,11.10
2018-07-16T22:26:58.870Z,11.90
2018-07-16T22:29:29.998Z,11.30
2018-07-16T22:32:00.975Z,11.90
2018-07-16T22:34:32.788Z,10.83
2018-07-16T22:37:03.687Z,10.60
2018-07-16T22:39:35.710Z,11.20
2018-07-16T22:42:07.525Z,10.50
2018-07-16T22:44:38.418Z,10.40
2018-07-16T22:47:10.285Z,10.20
2018-07-16T22:49:41.419Z,10.57
2018-07-16T22:52:12.767Z,10.40
2018-07-16T22:54:44.094Z,10.40
2018-07-16T22:57:15.547Z,9.67
2018-07-16T22:59:47.253Z,9.43
2018-07-16T23:02:18.696Z,9.63
2018-07-16T23:04:49.922Z,10.03
2018-07-16T23:07:21.044Z,9.43
2018-07-16T23:09:52.114Z,9.53
2018-07-16T23:12:23.337Z,9.63
2018-07-16T23:14:54.618Z,10.33
2018-07-16T23:17:26.445Z,9.67
2018-07-16T23:19:57.617Z,10.30
2018-07-16T23:22:28.715Z,9.83
2018-07-16T23:25:00.491Z,9.90
2018-07-16T23:27:32.565Z,9.73
2018-07-16T23:30:04.461Z,10.07
2018-07-16T23:32:36.228Z,10.10
2018-07-16T23:35:07.357Z,9.87
2018-07-16T23:37:39.671Z,10.73
2018-07-16T23:40:11.357Z,10.83
2018-07-16T23:42:43.658Z,10.00
2018-07-16T23:45:16.550Z,9.63
2018-07-16T23:47:47.435Z,10.33
2018-07-16T23:50:18.749Z,10.13
2018-07-16T23:52:50.593Z,9.47
2018-07-16T23:55:21.920Z,10.00
